sensor_id;sensor_type;location;lat;lon;timestamp;temperature;humidity
21425;DHT22;10873;51.132;16.848;2023-02-01T00:01:31;23.70;46.90
21425;DHT22;10873;51.132;16.848;2023-02-01T00:03:58;23.70;46.90
21425;DHT22;10873;51.132;16.848;2023-02-01T00:06:23;23.70;46.80
21425;DHT22;10873;51.132;16.848;2023-02-01T00:08:52;23.70;46.80
21425;DHT22;10873;51.132;16.848;2023-02-01T00:11:18;23.70;47.50
21425;DHT22;10873;51.132;16.848;2023-02-01T00:13:44;23.70;46.90
21425;DHT22;10873;51.132;16.848;2023-02-01T00:16:13;23.70;46.90
21425;DHT22;10873;51.132;16.848;2023-02-01T00:18:42;23.70;46.90
21425;DHT22;10873;51.132;16.848;2023-02-01T00:21:08;23.70;46.90
21425;DHT22;10873;51.132;16.848;2023-02-01T00:23:36;23.70;46.90
21425;DHT22;10873;51.132;16.848;2023-02-01T00:26:04;23.80;47.00
21425;DHT22;10873;51.132;16.848;2023-02-01T00:28:30;23.70;46.90
21425;DHT22;10873;51.132;16.848;2023-02-01T00:30:57;23.70;46.90
21425;DHT22;10873;51.132;16.848;2023-02-01T00:33:24;23.80;47.00
21425;DHT22;10873;51.132;16.848;2023-02-01T00:35:51;23.70;47.00
21425;DHT22;10873;51.132;16.848;2023-02-01T00:38:17;23.70;47.00
21425;DHT22;10873;51.132;16.848;2023-02-01T00:40:43;23.70;47.10
21425;DHT22;10873;51.132;16.848;2023-02-01T00:43:09;23.70;47.10
21425;DHT22;10873;51.132;16.848;2023-02-01T00:45:35;23.80;47.20
21425;DHT22;10873;51.132;16.848;2023-02-01T00:48:01;23.80;47.20
21425;DHT22;10873;51.132;16.848;2023-02-01T00:50:28;23.80;47.20
21425;DHT22;10873;51.132;16.848;2023-02-01T00:52:55;23.80;47.10
21425;DHT22;10873;51.132;16.848;2023-02-01T00:55:20;23.80;47.10
21425;DHT22;10873;51.132;16.848;2023-02-01T00:57:46;23.90;47.20
21425;DHT22;10873;51.132;16.848;2023-02-01T01:00:13;23.80;47.10
21425;DHT22;10873;51.132;16.848;2023-02-01T01:02:39;23.80;47.10
21425;DHT22;10873;51.132;16.848;2023-02-01T01:05:07;23.80;47.00
21425;DHT22;10873;51.132;16.848;2023-02-01T01:07:34;23.80;47.00
21425;DHT22;10873;51.132;16.848;2023-02-01T01:10:00;23.80;47.00
21425;DHT22;10873;51.132;16.848;2023-02-01T01:12:26;23.80;47.00
21425;DHT22;10873;51.132;16.848;2023-02-01T01:14:52;23.80;47.00
21425;DHT22;10873;51.132;16.848;2023-02-01T01:17:18;23.90;47.10
21425;DHT22;10873;51.132;16.848;2023-02-01T01:19:44;23.90;47.10
21425;DHT22;10873;51.132;16.848;2023-02-01T01:22:10;23.80;47.00
21425;DHT22;10873;51.132;16.848;2023-02-01T01:24:38;23.80;46.90
21425;DHT22;10873;51.132;16.848;2023-02-01T01:27:04;23.80;46.90
21425;DHT22;10873;51.132;16.848;2023-02-01T01:29:29;23.90;46.80
21425;DHT22;10873;51.132;16.848;2023-02-01T01:31:56;23.80;46.60
21425;DHT22;10873;51.132;16.848;2023-02-01T01:34:21;23.80;46.60
21425;DHT22;10873;51.132;16.848;2023-02-01T01:36:48;23.90;46.60
21425;DHT22;10873;51.132;16.848;2023-02-01T01:39:14;23.80;46.70
21425;DHT22;10873;51.132;16.848;2023-02-01T01:41:41;23.80;46.70
21425;DHT22;10873;51.132;16.848;2023-02-01T01:47:07;23.80;46.70
21425;DHT22;10873;51.132;16.848;2023-02-01T01:49:34;23.80;46.70
21425;DHT22;10873;51.132;16.848;2023-02-01T01:52:01;23.80;46.70
21425;DHT22;10873;51.132;16.848;2023-02-01T01:54:29;23.80;46.80
21425;DHT22;10873;51.132;16.848;2023-02-01T01:57:01;23.90;46.80
21425;DHT22;10873;51.132;16.848;2023-02-01T01:59:31;23.80;46.70
21425;DHT22;10873;51.132;16.848;2023-02-01T02:01:58;23.90;46.80
21425;DHT22;10873;51.132;16.848;2023-02-01T02:04:24;23.90;46.70
21425;DHT22;10873;51.132;16.848;2023-02-01T02:06:56;23.80;46.70
21425;DHT22;10873;51.132;16.848;2023-02-01T02:09:24;23.90;46.80
21425;DHT22;10873;51.132;16.848;2023-02-01T02:11:51;23.80;46.80
21425;DHT22;10873;51.132;16.848;2023-02-01T02:14:19;23.80;46.80
21425;DHT22;10873;51.132;16.848;2023-02-01T02:17:06;23.80;46.90
21425;DHT22;10873;51.132;16.848;2023-02-01T02:22:47;23.80;46.90
21425;DHT22;10873;51.132;16.848;2023-02-01T02:28:43;23.80;47.00
21425;DHT22;10873;51.132;16.848;2023-02-01T02:31:30;23.80;47.00
21425;DHT22;10873;51.132;16.848;2023-02-01T02:34:06;23.90;47.00
21425;DHT22;10873;51.132;16.848;2023-02-01T02:36:40;23.90;47.00
21425;DHT22;10873;51.132;16.848;2023-02-01T02:39:16;23.90;47.00
21425;DHT22;10873;51.132;16.848;2023-02-01T02:41:50;23.80;47.00
21425;DHT22;10873;51.132;16.848;2023-02-01T02:44:45;23.80;47.10
21425;DHT22;10873;51.132;16.848;2023-02-01T02:47:34;23.80;47.10
21425;DHT22;10873;51.132;16.848;2023-02-01T02:50:10;23.90;47.10
21425;DHT22;10873;51.132;16.848;2023-02-01T02:53:01;23.90;47.10
21425;DHT22;10873;51.132;16.848;2023-02-01T02:55:47;23.90;47.10
21425;DHT22;10873;51.132;16.848;2023-02-01T02:58:13;23.90;47.00
21425;DHT22;10873;51.132;16.848;2023-02-01T03:00:59;23.90;47.00
21425;DHT22;10873;51.132;16.848;2023-02-01T03:03:44;23.90;47.00
21425;DHT22;10873;51.132;16.848;2023-02-01T03:06:32;23.90;47.00
21425;DHT22;10873;51.132;16.848;2023-02-01T03:09:01;23.90;46.90
21425;DHT22;10873;51.132;16.848;2023-02-01T03:11:32;23.90;46.90
21425;DHT22;10873;51.132;16.848;2023-02-01T03:14:18;23.90;46.90
21425;DHT22;10873;51.132;16.848;2023-02-01T03:16:51;23.90;47.00
21425;DHT22;10873;51.132;16.848;2023-02-01T03:19:20;23.90;47.00
21425;DHT22;10873;51.132;16.848;2023-02-01T03:21:50;23.90;47.00
21425;DHT22;10873;51.132;16.848;2023-02-01T03:24:23;23.90;47.00
21425;DHT22;10873;51.132;16.848;2023-02-01T03:27:03;23.90;47.00
21425;DHT22;10873;51.132;16.848;2023-02-01T03:29:36;23.90;47.00
21425;DHT22;10873;51.132;16.848;2023-02-01T03:32:03;23.90;46.90
21425;DHT22;10873;51.132;16.848;2023-02-01T03:34:29;23.90;46.90
21425;DHT22;10873;51.132;16.848;2023-02-01T03:36:59;23.90;46.90
21425;DHT22;10873;51.132;16.848;2023-02-01T03:39:29;24.00;46.90
21425;DHT22;10873;51.132;16.848;2023-02-01T03:41:59;23.90;46.90
21425;DHT22;10873;51.132;16.848;2023-02-01T03:44:28;23.90;46.90
21425;DHT22;10873;51.132;16.848;2023-02-01T03:46:59;23.90;46.80
21425;DHT22;10873;51.132;16.848;2023-02-01T03:49:28;23.90;46.80
21425;DHT22;10873;51.132;16.848;2023-02-01T03:51:58;24.00;46.80
21425;DHT22;10873;51.132;16.848;2023-02-01T03:54:25;23.90;46.80
21425;DHT22;10873;51.132;16.848;2023-02-01T03:57:06;23.90;46.90
21425;DHT22;10873;51.132;16.848;2023-02-01T03:59:39;24.00;46.90
21425;DHT22;10873;51.132;16.848;2023-02-01T04:05:08;24.00;46.90
21425;DHT22;10873;51.132;16.848;2023-02-01T04:12:52;24.00;46.70
21425;DHT22;10873;51.132;16.848;2023-02-01T04:15:26;24.00;46.80
21425;DHT22;10873;51.132;16.848;2023-02-01T04:17:53;24.00;46.80
21425;DHT22;10873;51.132;16.848;2023-02-01T04:20:37;24.00;46.70
21425;DHT22;10873;51.132;16.848;2023-02-01T04:23:08;24.00;46.70
21425;DHT22;10873;51.132;16.848;2023-02-01T04:25:51;24.00;46.70
21425;DHT22;10873;51.132;16.848;2023-02-01T04:28:18;24.00;46.80
21425;DHT22;10873;51.132;16.848;2023-02-01T04:30:46;24.00;46.80
21425;DHT22;10873;51.132;16.848;2023-02-01T04:33:11;24.00;46.70
21425;DHT22;10873;51.132;16.848;2023-02-01T04:35:39;24.00;46.70
21425;DHT22;10873;51.132;16.848;2023-02-01T04:38:05;24.00;46.80
21425;DHT22;10873;51.132;16.848;2023-02-01T04:40:32;24.00;46.70
21425;DHT22;10873;51.132;16.848;2023-02-01T04:43:00;24.00;46.80
21425;DHT22;10873;51.132;16.848;2023-02-01T04:45:27;24.00;46.70
21425;DHT22;10873;51.132;16.848;2023-02-01T04:47:53;24.00;46.70
21425;DHT22;10873;51.132;16.848;2023-02-01T04:50:19;24.00;46.60
21425;DHT22;10873;51.132;16.848;2023-02-01T04:52:46;24.00;46.60
21425;DHT22;10873;51.132;16.848;2023-02-01T04:55:12;24.00;46.50
21425;DHT22;10873;51.132;16.848;2023-02-01T04:57:39;24.00;46.50
21425;DHT22;10873;51.132;16.848;2023-02-01T05:00:08;24.00;46.60
21425;DHT22;10873;51.132;16.848;2023-02-01T05:02:36;24.00;46.60
21425;DHT22;10873;51.132;16.848;2023-02-01T05:05:02;24.00;46.60
21425;DHT22;10873;51.132;16.848;2023-02-01T05:07:28;24.00;46.60
21425;DHT22;10873;51.132;16.848;2023-02-01T05:09:54;24.00;46.60
21425;DHT22;10873;51.132;16.848;2023-02-01T05:12:20;24.00;46.60
21425;DHT22;10873;51.132;16.848;2023-02-01T05:15:06;24.00;46.60
21425;DHT22;10873;51.132;16.848;2023-02-01T05:17:32;24.00;46.50
21425;DHT22;10873;51.132;16.848;2023-02-01T05:19:59;24.00;46.50
21425;DHT22;10873;51.132;16.848;2023-02-01T05:22:25;24.10;46.60
21425;DHT22;10873;51.132;16.848;2023-02-01T05:24:52;24.10;46.50
21425;DHT22;10873;51.132;16.848;2023-02-01T05:27:17;24.10;46.60
21425;DHT22;10873;51.132;16.848;2023-02-01T05:29:44;24.10;46.50
21425;DHT22;10873;51.132;16.848;2023-02-01T05:50:38;24.00;46.30
21425;DHT22;10873;51.132;16.848;2023-02-01T05:53:04;24.00;46.30
21425;DHT22;10873;51.132;16.848;2023-02-01T05:55:30;24.00;46.30
21425;DHT22;10873;51.132;16.848;2023-02-01T05:57:56;24.00;46.30
21425;DHT22;10873;51.132;16.848;2023-02-01T06:00:23;24.00;46.30
21425;DHT22;10873;51.132;16.848;2023-02-01T06:02:49;24.00;46.40
21425;DHT22;10873;51.132;16.848;2023-02-01T06:05:15;24.00;46.40
21425;DHT22;10873;51.132;16.848;2023-02-01T06:07:43;24.00;46.40
21425;DHT22;10873;51.132;16.848;2023-02-01T06:10:09;24.00;46.50
21425;DHT22;10873;51.132;16.848;2023-02-01T06:12:36;24.00;46.50
21425;DHT22;10873;51.132;16.848;2023-02-01T06:15:02;24.00;46.60
21425;DHT22;10873;51.132;16.848;2023-02-01T06:17:28;24.00;46.70
21425;DHT22;10873;51.132;16.848;2023-02-01T06:19:54;24.00;46.60
21425;DHT22;10873;51.132;16.848;2023-02-01T06:22:20;24.00;46.50
21425;DHT22;10873;51.132;16.848;2023-02-01T06:24:48;24.00;46.30
21425;DHT22;10873;51.132;16.848;2023-02-01T06:27:14;24.00;46.20
21425;DHT22;10873;51.132;16.848;2023-02-01T06:29:40;24.00;46.20
21425;DHT22;10873;51.132;16.848;2023-02-01T06:32:07;24.00;46.20
21425;DHT22;10873;51.132;16.848;2023-02-01T06:34:32;24.00;46.20
21425;DHT22;10873;51.132;16.848;2023-02-01T06:36:58;24.00;46.20
21425;DHT22;10873;51.132;16.848;2023-02-01T06:39:24;24.00;46.20
21425;DHT22;10873;51.132;16.848;2023-02-01T06:41:52;24.00;46.30
21425;DHT22;10873;51.132;16.848;2023-02-01T06:44:18;23.90;46.30
21425;DHT22;10873;51.132;16.848;2023-02-01T06:46:44;24.00;46.40
21425;DHT22;10873;51.132;16.848;2023-02-01T06:49:10;24.00;46.40
21425;DHT22;10873;51.132;16.848;2023-02-01T06:51:36;24.00;46.40
21425;DHT22;10873;51.132;16.848;2023-02-01T06:54:02;24.00;46.40
21425;DHT22;10873;51.132;16.848;2023-02-01T06:56:28;24.00;46.40
21425;DHT22;10873;51.132;16.848;2023-02-01T06:58:55;24.00;46.30
21425;DHT22;10873;51.132;16.848;2023-02-01T07:01:22;24.00;46.40
21425;DHT22;10873;51.132;16.848;2023-02-01T07:03:48;24.00;46.40
21425;DHT22;10873;51.132;16.848;2023-02-01T07:06:15;24.00;46.50
21425;DHT22;10873;51.132;16.848;2023-02-01T07:08:40;24.00;46.50
21425;DHT22;10873;51.132;16.848;2023-02-01T07:11:09;24.00;46.50
21425;DHT22;10873;51.132;16.848;2023-02-01T07:13:35;24.10;46.50
21425;DHT22;10873;51.132;16.848;2023-02-01T07:16:05;24.00;46.60
21425;DHT22;10873;51.132;16.848;2023-02-01T07:18:31;24.00;46.60
21425;DHT22;10873;51.132;16.848;2023-02-01T07:20:58;24.00;46.60
21425;DHT22;10873;51.132;16.848;2023-02-01T07:23:25;24.00;46.70
21425;DHT22;10873;51.132;16.848;2023-02-01T07:25:53;24.00;46.70
21425;DHT22;10873;51.132;16.848;2023-02-01T07:28:19;24.00;46.70
21425;DHT22;10873;51.132;16.848;2023-02-01T07:30:45;24.00;46.70
21425;DHT22;10873;51.132;16.848;2023-02-01T07:33:18;24.00;46.70
21425;DHT22;10873;51.132;16.848;2023-02-01T07:35:45;24.00;46.70
21425;DHT22;10873;51.132;16.848;2023-02-01T07:38:11;24.00;46.70
21425;DHT22;10873;51.132;16.848;2023-02-01T07:40:37;24.00;46.70
21425;DHT22;10873;51.132;16.848;2023-02-01T07:43:03;24.00;46.70
21425;DHT22;10873;51.132;16.848;2023-02-01T07:45:32;24.00;46.70
21425;DHT22;10873;51.132;16.848;2023-02-01T07:47:57;24.00;46.70
21425;DHT22;10873;51.132;16.848;2023-02-01T07:50:25;24.00;46.60
21425;DHT22;10873;51.132;16.848;2023-02-01T07:52:51;24.00;46.70
21425;DHT22;10873;51.132;16.848;2023-02-01T07:55:19;24.00;46.70
21425;DHT22;10873;51.132;16.848;2023-02-01T07:57:45;24.00;46.70
21425;DHT22;10873;51.132;16.848;2023-02-01T08:00:12;24.00;46.70
21425;DHT22;10873;51.132;16.848;2023-02-01T08:02:57;24.00;46.60
21425;DHT22;10873;51.132;16.848;2023-02-01T08:05:25;24.00;46.60
21425;DHT22;10873;51.132;16.848;2023-02-01T08:07:51;24.00;46.60
21425;DHT22;10873;51.132;16.848;2023-02-01T08:10:18;24.00;46.60
21425;DHT22;10873;51.132;16.848;2023-02-01T08:12:44;24.00;46.70
21425;DHT22;10873;51.132;16.848;2023-02-01T08:15:14;24.00;46.70
21425;DHT22;10873;51.132;16.848;2023-02-01T08:17:46;24.00;46.70
21425;DHT22;10873;51.132;16.848;2023-02-01T08:20:12;24.00;46.70
21425;DHT22;10873;51.132;16.848;2023-02-01T08:22:40;24.00;46.70
21425;DHT22;10873;51.132;16.848;2023-02-01T08:25:07;24.00;46.70
21425;DHT22;10873;51.132;16.848;2023-02-01T08:27:33;24.00;46.80
21425;DHT22;10873;51.132;16.848;2023-02-01T08:29:59;24.00;46.90
21425;DHT22;10873;51.132;16.848;2023-02-01T08:32:25;24.00;46.90
21425;DHT22;10873;51.132;16.848;2023-02-01T08:34:52;24.00;46.90
21425;DHT22;10873;51.132;16.848;2023-02-01T08:37:18;24.00;46.80
21425;DHT22;10873;51.132;16.848;2023-02-01T08:39:45;24.00;46.90
21425;DHT22;10873;51.132;16.848;2023-02-01T08:42:12;24.00;46.90
21425;DHT22;10873;51.132;16.848;2023-02-01T08:44:57;24.00;46.80
21425;DHT22;10873;51.132;16.848;2023-02-01T08:47:23;24.00;46.90
21425;DHT22;10873;51.132;16.848;2023-02-01T08:49:49;24.00;46.90
21425;DHT22;10873;51.132;16.848;2023-02-01T08:52:15;24.00;47.00
21425;DHT22;10873;51.132;16.848;2023-02-01T08:54:41;24.00;47.10
21425;DHT22;10873;51.132;16.848;2023-02-01T08:57:08;24.00;47.10
21425;DHT22;10873;51.132;16.848;2023-02-01T08:59:37;24.00;47.00
21425;DHT22;10873;51.132;16.848;2023-02-01T09:02:03;24.00;47.00
21425;DHT22;10873;51.132;16.848;2023-02-01T09:04:30;24.00;47.00
21425;DHT22;10873;51.132;16.848;2023-02-01T09:06:56;24.00;46.90
21425;DHT22;10873;51.132;16.848;2023-02-01T09:09:22;24.00;46.80
21425;DHT22;10873;51.132;16.848;2023-02-01T09:11:48;24.00;46.80
21425;DHT22;10873;51.132;16.848;2023-02-01T09:14:17;24.00;46.80
21425;DHT22;10873;51.132;16.848;2023-02-01T09:16:43;24.00;46.80
21425;DHT22;10873;51.132;16.848;2023-02-01T09:19:09;24.00;46.80
21425;DHT22;10873;51.132;16.848;2023-02-01T09:21:35;24.00;46.80
21425;DHT22;10873;51.132;16.848;2023-02-01T09:24:01;24.00;46.80
21425;DHT22;10873;51.132;16.848;2023-02-01T09:26:27;24.00;46.80
21425;DHT22;10873;51.132;16.848;2023-02-01T09:28:53;24.00;46.80
21425;DHT22;10873;51.132;16.848;2023-02-01T09:31:21;24.00;46.80
21425;DHT22;10873;51.132;16.848;2023-02-01T09:33:47;24.00;46.90
21425;DHT22;10873;51.132;16.848;2023-02-01T09:36:13;24.00;46.90
21425;DHT22;10873;51.132;16.848;2023-02-01T09:38:39;24.00;46.80
21425;DHT22;10873;51.132;16.848;2023-02-01T09:41:10;24.00;46.80
21425;DHT22;10873;51.132;16.848;2023-02-01T09:43:48;24.00;46.80
21425;DHT22;10873;51.132;16.848;2023-02-01T09:46:23;24.00;46.80
21425;DHT22;10873;51.132;16.848;2023-02-01T09:48:54;24.00;46.80
21425;DHT22;10873;51.132;16.848;2023-02-01T09:51:23;24.00;46.90
21425;DHT22;10873;51.132;16.848;2023-02-01T09:53:58;24.00;46.80
21425;DHT22;10873;51.132;16.848;2023-02-01T09:56:32;24.00;46.80
21425;DHT22;10873;51.132;16.848;2023-02-01T09:59:10;24.00;46.70
21425;DHT22;10873;51.132;16.848;2023-02-01T10:01:42;24.10;46.70
21425;DHT22;10873;51.132;16.848;2023-02-01T10:04:12;24.10;46.60
21425;DHT22;10873;51.132;16.848;2023-02-01T10:06:46;24.10;46.60
21425;DHT22;10873;51.132;16.848;2023-02-01T10:09:29;24.10;46.60
21425;DHT22;10873;51.132;16.848;2023-02-01T10:12:43;24.10;46.50
21425;DHT22;10873;51.132;16.848;2023-02-01T10:15:21;24.10;46.50
21425;DHT22;10873;51.132;16.848;2023-02-01T10:18:02;24.10;46.50
21425;DHT22;10873;51.132;16.848;2023-02-01T10:20:39;24.10;46.50
21425;DHT22;10873;51.132;16.848;2023-02-01T10:23:25;24.10;46.50
21425;DHT22;10873;51.132;16.848;2023-02-01T10:25:55;24.10;46.50
21425;DHT22;10873;51.132;16.848;2023-02-01T10:28:22;24.10;46.50
21425;DHT22;10873;51.132;16.848;2023-02-01T10:30:52;24.10;46.60
21425;DHT22;10873;51.132;16.848;2023-02-01T10:33:24;24.20;46.70
21425;DHT22;10873;51.132;16.848;2023-02-01T10:35:54;24.20;46.70
21425;DHT22;10873;51.132;16.848;2023-02-01T10:38:25;24.20;46.80
21425;DHT22;10873;51.132;16.848;2023-02-01T10:40:53;24.20;46.80
21425;DHT22;10873;51.132;16.848;2023-02-01T10:43:20;24.20;46.90
21425;DHT22;10873;51.132;16.848;2023-02-01T10:45:46;24.20;46.80
21425;DHT22;10873;51.132;16.848;2023-02-01T10:58:36;24.20;47.00
21425;DHT22;10873;51.132;16.848;2023-02-01T11:01:10;24.20;47.10
21425;DHT22;10873;51.132;16.848;2023-02-01T11:03:41;24.20;47.10
21425;DHT22;10873;51.132;16.848;2023-02-01T11:06:19;24.30;47.10
21425;DHT22;10873;51.132;16.848;2023-02-01T11:08:49;24.30;47.00
21425;DHT22;10873;51.132;16.848;2023-02-01T11:11:16;24.30;47.00
21425;DHT22;10873;51.132;16.848;2023-02-01T11:13:43;24.30;47.10
21425;DHT22;10873;51.132;16.848;2023-02-01T11:16:12;24.30;47.20
21425;DHT22;10873;51.132;16.848;2023-02-01T11:18:40;24.30;47.30
21425;DHT22;10873;51.132;16.848;2023-02-01T11:21:08;24.30;47.50
21425;DHT22;10873;51.132;16.848;2023-02-01T11:23:40;24.30;47.50
21425;DHT22;10873;51.132;16.848;2023-02-01T11:26:11;24.20;47.50
21425;DHT22;10873;51.132;16.848;2023-02-01T11:28:39;24.30;47.70
21425;DHT22;10873;51.132;16.848;2023-02-01T11:31:11;24.30;47.70
21425;DHT22;10873;51.132;16.848;2023-02-01T11:33:45;24.30;47.80
21425;DHT22;10873;51.132;16.848;2023-02-01T11:36:15;24.30;47.90
21425;DHT22;10873;51.132;16.848;2023-02-01T11:38:47;24.30;48.00
21425;DHT22;10873;51.132;16.848;2023-02-01T11:41:22;24.30;48.00
21425;DHT22;10873;51.132;16.848;2023-02-01T11:43:54;24.30;48.00
21425;DHT22;10873;51.132;16.848;2023-02-01T11:46:26;24.30;48.10
21425;DHT22;10873;51.132;16.848;2023-02-01T11:48:54;24.30;48.00
21425;DHT22;10873;51.132;16.848;2023-02-01T11:51:40;24.30;48.00
21425;DHT22;10873;51.132;16.848;2023-02-01T11:54:20;24.30;48.00
21425;DHT22;10873;51.132;16.848;2023-02-01T11:56:57;24.30;48.00
21425;DHT22;10873;51.132;16.848;2023-02-01T11:59:46;24.30;48.00
21425;DHT22;10873;51.132;16.848;2023-02-01T12:02:45;24.30;48.10
21425;DHT22;10873;51.132;16.848;2023-02-01T12:05:25;24.30;48.10
21425;DHT22;10873;51.132;16.848;2023-02-01T12:10:53;24.30;48.10
21425;DHT22;10873;51.132;16.848;2023-02-01T12:13:34;24.30;48.10
21425;DHT22;10873;51.132;16.848;2023-02-01T12:16:13;24.30;48.70
21425;DHT22;10873;51.132;16.848;2023-02-01T12:19:08;24.30;48.10
21425;DHT22;10873;51.132;16.848;2023-02-01T12:21:48;24.30;48.10
21425;DHT22;10873;51.132;16.848;2023-02-01T12:24:40;24.30;48.10
21425;DHT22;10873;51.132;16.848;2023-02-01T12:27:30;24.30;48.10
21425;DHT22;10873;51.132;16.848;2023-02-01T12:30:16;24.30;48.10
21425;DHT22;10873;51.132;16.848;2023-02-01T12:32:53;24.30;48.10
21425;DHT22;10873;51.132;16.848;2023-02-01T12:38:42;24.30;48.10
21425;DHT22;10873;51.132;16.848;2023-02-01T12:44:03;24.30;48.20
21425;DHT22;10873;51.132;16.848;2023-02-01T12:46:37;24.30;48.20
21425;DHT22;10873;51.132;16.848;2023-02-01T12:49:09;24.30;48.10
21425;DHT22;10873;51.132;16.848;2023-02-01T12:51:40;24.30;48.10
21425;DHT22;10873;51.132;16.848;2023-02-01T12:54:12;24.30;48.10
21425;DHT22;10873;51.132;16.848;2023-02-01T12:56:44;24.30;48.80
21425;DHT22;10873;51.132;16.848;2023-02-01T12:59:17;24.30;48.10
21425;DHT22;10873;51.132;16.848;2023-02-01T13:01:48;24.30;48.10
21425;DHT22;10873;51.132;16.848;2023-02-01T13:04:20;24.30;48.10
21425;DHT22;10873;51.132;16.848;2023-02-01T13:06:53;24.30;48.10
21425;DHT22;10873;51.132;16.848;2023-02-01T13:09:24;24.30;48.00
21425;DHT22;10873;51.132;16.848;2023-02-01T13:11:54;24.30;48.00
21425;DHT22;10873;51.132;16.848;2023-02-01T13:14:28;24.30;48.00
21425;DHT22;10873;51.132;16.848;2023-02-01T13:17:00;24.30;47.90
21425;DHT22;10873;51.132;16.848;2023-02-01T13:19:29;24.30;47.90
21425;DHT22;10873;51.132;16.848;2023-02-01T13:22:00;24.30;47.80
21425;DHT22;10873;51.132;16.848;2023-02-01T13:24:39;24.30;47.70
21425;DHT22;10873;51.132;16.848;2023-02-01T13:27:10;24.30;47.70
21425;DHT22;10873;51.132;16.848;2023-02-01T13:29:40;24.30;47.60
21425;DHT22;10873;51.132;16.848;2023-02-01T13:32:21;24.30;47.60
21425;DHT22;10873;51.132;16.848;2023-02-01T13:35:14;24.40;47.60
21425;DHT22;10873;51.132;16.848;2023-02-01T13:37:58;24.30;47.50
21425;DHT22;10873;51.132;16.848;2023-02-01T13:40:37;24.30;47.50
21425;DHT22;10873;51.132;16.848;2023-02-01T13:43:09;24.30;47.50
21425;DHT22;10873;51.132;16.848;2023-02-01T13:45:43;24.30;47.60
21425;DHT22;10873;51.132;16.848;2023-02-01T13:48:19;24.30;47.50
21425;DHT22;10873;51.132;16.848;2023-02-01T13:50:50;24.30;47.60
21425;DHT22;10873;51.132;16.848;2023-02-01T13:53:21;24.30;47.70
21425;DHT22;10873;51.132;16.848;2023-02-01T13:55:56;24.30;47.70
21425;DHT22;10873;51.132;16.848;2023-02-01T13:58:30;24.30;47.80
21425;DHT22;10873;51.132;16.848;2023-02-01T14:01:34;24.30;47.90
21425;DHT22;10873;51.132;16.848;2023-02-01T14:04:02;24.30;47.90
21425;DHT22;10873;51.132;16.848;2023-02-01T14:06:42;24.30;48.00
21425;DHT22;10873;51.132;16.848;2023-02-01T14:09:17;24.30;47.90
21425;DHT22;10873;51.132;16.848;2023-02-01T14:11:47;24.30;47.90
21425;DHT22;10873;51.132;16.848;2023-02-01T14:14:44;24.30;47.90
21425;DHT22;10873;51.132;16.848;2023-02-01T14:17:36;24.30;47.90
21425;DHT22;10873;51.132;16.848;2023-02-01T14:23:14;24.30;47.70
21425;DHT22;10873;51.132;16.848;2023-02-01T14:25:41;24.30;47.70
21425;DHT22;10873;51.132;16.848;2023-02-01T14:28:12;24.30;47.70
21425;DHT22;10873;51.132;16.848;2023-02-01T14:30:40;24.30;47.70
21425;DHT22;10873;51.132;16.848;2023-02-01T14:33:18;24.30;47.70
21425;DHT22;10873;51.132;16.848;2023-02-01T14:36:01;24.30;47.70
21425;DHT22;10873;51.132;16.848;2023-02-01T14:38:28;24.30;47.70
21425;DHT22;10873;51.132;16.848;2023-02-01T14:41:15;24.30;47.70
21425;DHT22;10873;51.132;16.848;2023-02-01T14:43:50;24.30;47.60
21425;DHT22;10873;51.132;16.848;2023-02-01T14:46:16;24.30;47.60
21425;DHT22;10873;51.132;16.848;2023-02-01T14:48:45;24.30;47.60
21425;DHT22;10873;51.132;16.848;2023-02-01T14:51:15;24.30;48.20
21425;DHT22;10873;51.132;16.848;2023-02-01T14:53:42;24.30;47.60
21425;DHT22;10873;51.132;16.848;2023-02-01T14:56:13;24.30;47.60
21425;DHT22;10873;51.132;16.848;2023-02-01T14:58:45;24.30;47.60
21425;DHT22;10873;51.132;16.848;2023-02-01T15:01:20;24.30;47.60
21425;DHT22;10873;51.132;16.848;2023-02-01T15:03:58;24.30;47.60
21425;DHT22;10873;51.132;16.848;2023-02-01T15:06:32;24.30;47.60
21425;DHT22;10873;51.132;16.848;2023-02-01T15:09:02;24.30;47.50
21425;DHT22;10873;51.132;16.848;2023-02-01T15:11:29;24.30;47.50
21425;DHT22;10873;51.132;16.848;2023-02-01T15:13:55;24.30;47.60
21425;DHT22;10873;51.132;16.848;2023-02-01T15:16:24;24.30;47.50
21425;DHT22;10873;51.132;16.848;2023-02-01T15:18:51;24.30;47.50
21425;DHT22;10873;51.132;16.848;2023-02-01T15:21:42;24.30;47.50
21425;DHT22;10873;51.132;16.848;2023-02-01T15:24:13;24.30;47.40
21425;DHT22;10873;51.132;16.848;2023-02-01T15:26:39;24.30;47.40
21425;DHT22;10873;51.132;16.848;2023-02-01T15:29:10;24.30;47.30
21425;DHT22;10873;51.132;16.848;2023-02-01T15:31:39;24.30;47.40
21425;DHT22;10873;51.132;16.848;2023-02-01T15:34:06;24.30;47.40
21425;DHT22;10873;51.132;16.848;2023-02-01T15:36:34;24.30;47.40
21425;DHT22;10873;51.132;16.848;2023-02-01T15:39:13;24.30;47.40
21425;DHT22;10873;51.132;16.848;2023-02-01T15:41:47;24.30;47.30
21425;DHT22;10873;51.132;16.848;2023-02-01T15:44:18;24.30;47.20
21425;DHT22;10873;51.132;16.848;2023-02-01T15:46:48;24.30;47.20
21425;DHT22;10873;51.132;16.848;2023-02-01T15:49:20;24.30;47.20
21425;DHT22;10873;51.132;16.848;2023-02-01T15:51:50;24.30;47.40
21425;DHT22;10873;51.132;16.848;2023-02-01T15:54:17;24.30;47.40
21425;DHT22;10873;51.132;16.848;2023-02-01T15:56:50;24.30;47.50
21425;DHT22;10873;51.132;16.848;2023-02-01T15:59:22;24.30;47.50
21425;DHT22;10873;51.132;16.848;2023-02-01T16:01:49;24.30;47.60
21425;DHT22;10873;51.132;16.848;2023-02-01T16:04:18;24.30;47.70
21425;DHT22;10873;51.132;16.848;2023-02-01T16:06:47;24.30;47.80
21425;DHT22;10873;51.132;16.848;2023-02-01T16:09:16;24.30;47.90
21425;DHT22;10873;51.132;16.848;2023-02-01T16:11:54;24.30;47.90
21425;DHT22;10873;51.132;16.848;2023-02-01T16:14:21;24.30;47.90
21425;DHT22;10873;51.132;16.848;2023-02-01T16:16:47;24.40;47.90
21425;DHT22;10873;51.132;16.848;2023-02-01T16:19:13;24.40;47.90
21425;DHT22;10873;51.132;16.848;2023-02-01T16:21:39;24.40;47.80
21425;DHT22;10873;51.132;16.848;2023-02-01T16:24:06;24.50;47.80
21425;DHT22;10873;51.132;16.848;2023-02-01T16:26:34;24.50;47.80
21425;DHT22;10873;51.132;16.848;2023-02-01T16:29:00;24.50;47.70
21425;DHT22;10873;51.132;16.848;2023-02-01T16:31:30;24.60;47.60
21425;DHT22;10873;51.132;16.848;2023-02-01T16:33:57;24.60;47.60
21425;DHT22;10873;51.132;16.848;2023-02-01T16:36:24;24.70;47.50